Terminal Aerodrome Forecast
Issued by NWS Blacksburg, VA

Current Version | Previous Version | Text Only | Print | Product List | Glossary Off
Versions: 1 2 3 4 5 6 7 8 9 10 11 12 13 14 15 16 17 18 19 20 21 22 23 24 25 26 27 28 29 30 31 32 33 34 35 36 37 38 39 40 41 42 43 44 45 46

000
FTUS41 KRNK 192024 AAA
TAFBLF
TAF AMD
KBLF 192024Z 1920/2018 15007KT P6SM FEW026 SCT045
      TEMPO 1920/1923 BKN025
     FM200600 16007KT 6SM BR FEW008
     FM201000 16005KT 2SM BR OVC005
     FM201330 16004KT P6SM SCT250=

USA.gov is the U.S. government's official web portal to all federal, state and local government web resources and services.